sensor_id;sensor_type;location;lat;lon;timestamp;P1;durP1;ratioP1;P2;durP2;ratioP2
16965;SDS011;8599;47.852;12.070;2022-08-27T00:02:18;9.37;;;3.80;;
16965;SDS011;8599;47.852;12.070;2022-08-27T00:04:45;4.10;;;3.37;;
16965;SDS011;8599;47.852;12.070;2022-08-27T00:07:12;3.83;;;3.13;;
16965;SDS011;8599;47.852;12.070;2022-08-27T00:09:39;6.38;;;3.20;;
16965;SDS011;8599;47.852;12.070;2022-08-27T00:12:08;9.13;;;3.40;;
16965;SDS011;8599;47.852;12.070;2022-08-27T00:14:36;4.50;;;2.80;;
16965;SDS011;8599;47.852;12.070;2022-08-27T00:17:04;6.10;;;3.60;;
16965;SDS011;8599;47.852;12.070;2022-08-27T00:19:32;5.57;;;3.13;;
16965;SDS011;8599;47.852;12.070;2022-08-27T00:21:59;3.40;;;3.00;;
16965;SDS011;8599;47.852;12.070;2022-08-27T00:24:26;3.00;;;2.80;;
16965;SDS011;8599;47.852;12.070;2022-08-27T00:26:53;4.40;;;3.22;;
16965;SDS011;8599;47.852;12.070;2022-08-27T00:29:21;3.30;;;3.00;;
16965;SDS011;8599;47.852;12.070;2022-08-27T00:31:50;5.18;;;2.53;;
16965;SDS011;8599;47.852;12.070;2022-08-27T00:34:17;5.43;;;3.00;;
16965;SDS011;8599;47.852;12.070;2022-08-27T00:36:45;4.30;;;3.10;;
16965;SDS011;8599;47.852;12.070;2022-08-27T00:39:12;4.30;;;3.05;;
16965;SDS011;8599;47.852;12.070;2022-08-27T00:41:39;7.03;;;3.80;;
16965;SDS011;8599;47.852;12.070;2022-08-27T00:44:07;4.17;;;3.27;;
16965;SDS011;8599;47.852;12.070;2022-08-27T00:46:36;3.30;;;3.00;;
16965;SDS011;8599;47.852;12.070;2022-08-27T00:49:07;4.53;;;3.35;;
16965;SDS011;8599;47.852;12.070;2022-08-27T00:51:36;5.28;;;3.30;;
16965;SDS011;8599;47.852;12.070;2022-08-27T00:54:04;3.58;;;3.17;;
16965;SDS011;8599;47.852;12.070;2022-08-27T00:56:34;3.60;;;3.30;;
16965;SDS011;8599;47.852;12.070;2022-08-27T00:59:08;6.38;;;3.47;;
16965;SDS011;8599;47.852;12.070;2022-08-27T01:01:40;5.20;;;3.10;;
16965;SDS011;8599;47.852;12.070;2022-08-27T01:04:22;3.47;;;3.17;;
16965;SDS011;8599;47.852;12.070;2022-08-27T01:06:49;3.20;;;2.87;;
16965;SDS011;8599;47.852;12.070;2022-08-27T01:09:16;12.07;;;3.17;;
16965;SDS011;8599;47.852;12.070;2022-08-27T01:11:44;4.20;;;3.37;;
16965;SDS011;8599;47.852;12.070;2022-08-27T01:14:13;3.63;;;3.28;;
16965;SDS011;8599;47.852;12.070;2022-08-27T01:16:44;6.60;;;3.67;;
16965;SDS011;8599;47.852;12.070;2022-08-27T01:19:17;5.82;;;3.40;;
16965;SDS011;8599;47.852;12.070;2022-08-27T01:21:52;3.63;;;3.20;;
16965;SDS011;8599;47.852;12.070;2022-08-27T01:24:34;5.30;;;3.67;;
16965;SDS011;8599;47.852;12.070;2022-08-27T01:27:03;6.13;;;3.20;;
16965;SDS011;8599;47.852;12.070;2022-08-27T01:29:33;3.83;;;3.07;;
16965;SDS011;8599;47.852;12.070;2022-08-27T01:32:04;3.75;;;3.05;;
16965;SDS011;8599;47.852;12.070;2022-08-27T01:34:33;7.53;;;3.20;;
16965;SDS011;8599;47.852;12.070;2022-08-27T01:37:00;7.85;;;2.70;;
16965;SDS011;8599;47.852;12.070;2022-08-27T01:39:29;4.07;;;3.10;;
16965;SDS011;8599;47.852;12.070;2022-08-27T01:42:02;4.07;;;3.00;;
16965;SDS011;8599;47.852;12.070;2022-08-27T01:44:40;4.47;;;2.90;;
16965;SDS011;8599;47.852;12.070;2022-08-27T01:47:12;3.80;;;2.97;;
16965;SDS011;8599;47.852;12.070;2022-08-27T01:49:39;4.50;;;2.47;;
16965;SDS011;8599;47.852;12.070;2022-08-27T01:52:05;4.78;;;2.42;;
16965;SDS011;8599;47.852;12.070;2022-08-27T01:54:32;2.30;;;2.07;;
16965;SDS011;8599;47.852;12.070;2022-08-27T01:56:59;3.38;;;2.10;;
16965;SDS011;8599;47.852;12.070;2022-08-27T01:59:28;2.40;;;2.10;;
16965;SDS011;8599;47.852;12.070;2022-08-27T02:01:55;4.00;;;2.22;;
16965;SDS011;8599;47.852;12.070;2022-08-27T02:04:22;2.10;;;2.00;;
16965;SDS011;8599;47.852;12.070;2022-08-27T02:06:49;3.08;;;2.08;;
16965;SDS011;8599;47.852;12.070;2022-08-27T02:09:16;2.27;;;2.00;;
16965;SDS011;8599;47.852;12.070;2022-08-27T02:11:42;2.63;;;2.28;;
16965;SDS011;8599;47.852;12.070;2022-08-27T02:14:11;2.60;;;1.97;;
16965;SDS011;8599;47.852;12.070;2022-08-27T02:16:37;3.10;;;2.20;;
16965;SDS011;8599;47.852;12.070;2022-08-27T02:19:05;2.30;;;2.10;;
16965;SDS011;8599;47.852;12.070;2022-08-27T02:21:32;2.15;;;1.92;;
16965;SDS011;8599;47.852;12.070;2022-08-27T02:23:59;4.77;;;2.40;;
16965;SDS011;8599;47.852;12.070;2022-08-27T02:26:26;3.88;;;2.22;;
16965;SDS011;8599;47.852;12.070;2022-08-27T02:28:53;4.63;;;2.53;;
16965;SDS011;8599;47.852;12.070;2022-08-27T02:31:21;4.68;;;2.38;;
16965;SDS011;8599;47.852;12.070;2022-08-27T02:33:48;2.37;;;2.17;;
16965;SDS011;8599;47.852;12.070;2022-08-27T02:36:15;3.08;;;2.65;;
16965;SDS011;8599;47.852;12.070;2022-08-27T02:38:42;2.77;;;2.53;;
16965;SDS011;8599;47.852;12.070;2022-08-27T02:41:09;4.40;;;2.30;;
16965;SDS011;8599;47.852;12.070;2022-08-27T02:43:36;3.78;;;2.30;;
16965;SDS011;8599;47.852;12.070;2022-08-27T02:46:03;2.75;;;2.53;;
16965;SDS011;8599;47.852;12.070;2022-08-27T02:48:34;5.73;;;2.90;;
16965;SDS011;8599;47.852;12.070;2022-08-27T02:51:01;3.33;;;2.20;;
16965;SDS011;8599;47.852;12.070;2022-08-27T02:53:30;2.55;;;2.30;;
16965;SDS011;8599;47.852;12.070;2022-08-27T02:55:57;3.20;;;2.72;;
16965;SDS011;8599;47.852;12.070;2022-08-27T02:58:24;3.33;;;2.67;;
16965;SDS011;8599;47.852;12.070;2022-08-27T03:00:51;4.70;;;2.85;;
16965;SDS011;8599;47.852;12.070;2022-08-27T03:03:18;3.33;;;2.63;;
16965;SDS011;8599;47.852;12.070;2022-08-27T03:05:46;4.10;;;2.80;;
16965;SDS011;8599;47.852;12.070;2022-08-27T03:08:13;6.27;;;2.80;;
16965;SDS011;8599;47.852;12.070;2022-08-27T03:10:40;7.40;;;2.95;;
16965;SDS011;8599;47.852;12.070;2022-08-27T03:13:07;3.22;;;2.92;;
16965;SDS011;8599;47.852;12.070;2022-08-27T03:15:34;3.72;;;2.85;;
16965;SDS011;8599;47.852;12.070;2022-08-27T03:18:01;5.22;;;3.00;;
16965;SDS011;8599;47.852;12.070;2022-08-27T03:20:47;3.13;;;2.60;;
16965;SDS011;8599;47.852;12.070;2022-08-27T03:23:16;3.97;;;2.78;;
16965;SDS011;8599;47.852;12.070;2022-08-27T03:25:49;6.25;;;3.25;;
16965;SDS011;8599;47.852;12.070;2022-08-27T03:28:18;5.45;;;3.30;;
16965;SDS011;8599;47.852;12.070;2022-08-27T03:30:47;3.60;;;2.67;;
16965;SDS011;8599;47.852;12.070;2022-08-27T03:33:16;4.20;;;2.78;;
16965;SDS011;8599;47.852;12.070;2022-08-27T03:35:43;3.28;;;2.70;;
16965;SDS011;8599;47.852;12.070;2022-08-27T03:38:12;4.90;;;3.67;;
16965;SDS011;8599;47.852;12.070;2022-08-27T03:40:39;5.15;;;2.88;;
16965;SDS011;8599;47.852;12.070;2022-08-27T03:43:07;4.57;;;3.38;;
16965;SDS011;8599;47.852;12.070;2022-08-27T03:45:34;4.50;;;3.08;;
16965;SDS011;8599;47.852;12.070;2022-08-27T03:48:01;3.65;;;3.30;;
16965;SDS011;8599;47.852;12.070;2022-08-27T03:50:28;5.70;;;2.95;;
16965;SDS011;8599;47.852;12.070;2022-08-27T03:52:55;5.43;;;3.10;;
16965;SDS011;8599;47.852;12.070;2022-08-27T03:55:23;3.73;;;3.30;;
16965;SDS011;8599;47.852;12.070;2022-08-27T03:57:50;4.50;;;3.15;;
16965;SDS011;8599;47.852;12.070;2022-08-27T04:00:17;3.50;;;3.20;;
16965;SDS011;8599;47.852;12.070;2022-08-27T04:02:44;3.70;;;3.40;;
16965;SDS011;8599;47.852;12.070;2022-08-27T04:05:11;3.85;;;3.10;;
16965;SDS011;8599;47.852;12.070;2022-08-27T04:07:39;3.80;;;3.40;;
16965;SDS011;8599;47.852;12.070;2022-08-27T04:10:08;4.05;;;3.58;;
16965;SDS011;8599;47.852;12.070;2022-08-27T04:12:37;7.65;;;3.75;;
16965;SDS011;8599;47.852;12.070;2022-08-27T04:15:05;6.10;;;3.50;;
16965;SDS011;8599;47.852;12.070;2022-08-27T04:17:33;8.57;;;3.45;;
16965;SDS011;8599;47.852;12.070;2022-08-27T04:20:00;3.83;;;3.40;;
16965;SDS011;8599;47.852;12.070;2022-08-27T04:22:27;5.78;;;3.42;;
16965;SDS011;8599;47.852;12.070;2022-08-27T04:24:54;6.95;;;3.97;;
16965;SDS011;8599;47.852;12.070;2022-08-27T04:27:21;4.70;;;3.55;;
16965;SDS011;8599;47.852;12.070;2022-08-27T04:29:54;4.13;;;3.50;;
16965;SDS011;8599;47.852;12.070;2022-08-27T04:32:22;6.22;;;3.60;;
16965;SDS011;8599;47.852;12.070;2022-08-27T04:34:51;4.68;;;3.92;;
16965;SDS011;8599;47.852;12.070;2022-08-27T04:37:19;4.95;;;3.65;;
16965;SDS011;8599;47.852;12.070;2022-08-27T04:39:45;5.68;;;3.55;;
16965;SDS011;8599;47.852;12.070;2022-08-27T04:42:12;6.90;;;3.80;;
16965;SDS011;8599;47.852;12.070;2022-08-27T04:44:42;5.55;;;3.45;;
16965;SDS011;8599;47.852;12.070;2022-08-27T04:47:11;4.43;;;4.07;;
16965;SDS011;8599;47.852;12.070;2022-08-27T04:49:38;4.53;;;3.58;;
16965;SDS011;8599;47.852;12.070;2022-08-27T04:52:05;4.80;;;4.00;;
16965;SDS011;8599;47.852;12.070;2022-08-27T04:54:32;5.70;;;4.13;;
16965;SDS011;8599;47.852;12.070;2022-08-27T04:57:00;5.47;;;3.93;;
16965;SDS011;8599;47.852;12.070;2022-08-27T04:59:28;5.60;;;4.00;;
16965;SDS011;8599;47.852;12.070;2022-08-27T05:01:55;4.67;;;3.20;;
16965;SDS011;8599;47.852;12.070;2022-08-27T05:04:23;6.07;;;3.50;;
16965;SDS011;8599;47.852;12.070;2022-08-27T05:06:50;7.82;;;3.78;;
16965;SDS011;8599;47.852;12.070;2022-08-27T05:09:17;3.33;;;3.03;;
16965;SDS011;8599;47.852;12.070;2022-08-27T05:11:44;4.88;;;3.58;;
16965;SDS011;8599;47.852;12.070;2022-08-27T05:14:12;4.00;;;3.60;;
16965;SDS011;8599;47.852;12.070;2022-08-27T05:16:41;7.27;;;3.90;;
16965;SDS011;8599;47.852;12.070;2022-08-27T05:19:09;5.85;;;3.85;;
16965;SDS011;8599;47.852;12.070;2022-08-27T05:21:42;4.55;;;3.50;;
16965;SDS011;8599;47.852;12.070;2022-08-27T05:24:11;4.57;;;3.47;;
16965;SDS011;8599;47.852;12.070;2022-08-27T05:26:38;5.30;;;4.10;;
16965;SDS011;8599;47.852;12.070;2022-08-27T05:29:04;3.63;;;3.27;;
16965;SDS011;8599;47.852;12.070;2022-08-27T05:31:31;3.83;;;3.47;;
16965;SDS011;8599;47.852;12.070;2022-08-27T05:33:59;6.72;;;3.38;;
16965;SDS011;8599;47.852;12.070;2022-08-27T05:36:27;4.22;;;3.72;;
16965;SDS011;8599;47.852;12.070;2022-08-27T05:38:57;4.55;;;3.45;;
16965;SDS011;8599;47.852;12.070;2022-08-27T05:41:26;5.17;;;3.60;;
16965;SDS011;8599;47.852;12.070;2022-08-27T05:43:55;4.55;;;3.75;;
16965;SDS011;8599;47.852;12.070;2022-08-27T05:46:25;8.70;;;3.95;;
16965;SDS011;8599;47.852;12.070;2022-08-27T05:48:54;7.23;;;3.30;;
16965;SDS011;8599;47.852;12.070;2022-08-27T05:51:23;4.75;;;3.90;;
16965;SDS011;8599;47.852;12.070;2022-08-27T05:53:53;5.15;;;3.65;;
16965;SDS011;8599;47.852;12.070;2022-08-27T05:56:23;4.35;;;3.60;;
16965;SDS011;8599;47.852;12.070;2022-08-27T05:58:51;5.13;;;3.90;;
16965;SDS011;8599;47.852;12.070;2022-08-27T06:01:37;6.38;;;3.65;;
16965;SDS011;8599;47.852;12.070;2022-08-27T06:04:05;8.35;;;3.88;;
16965;SDS011;8599;47.852;12.070;2022-08-27T06:06:33;3.80;;;3.42;;
16965;SDS011;8599;47.852;12.070;2022-08-27T06:09:00;5.57;;;3.63;;
16965;SDS011;8599;47.852;12.070;2022-08-27T06:11:29;5.53;;;3.88;;
16965;SDS011;8599;47.852;12.070;2022-08-27T06:13:55;4.90;;;3.78;;
16965;SDS011;8599;47.852;12.070;2022-08-27T06:16:22;4.50;;;3.63;;
16965;SDS011;8599;47.852;12.070;2022-08-27T06:18:49;4.78;;;3.95;;
16965;SDS011;8599;47.852;12.070;2022-08-27T06:21:17;4.32;;;3.80;;
16965;SDS011;8599;47.852;12.070;2022-08-27T06:23:45;4.45;;;3.80;;
16965;SDS011;8599;47.852;12.070;2022-08-27T06:26:13;4.57;;;3.63;;
16965;SDS011;8599;47.852;12.070;2022-08-27T06:28:42;6.93;;;3.45;;
16965;SDS011;8599;47.852;12.070;2022-08-27T06:31:10;4.25;;;3.42;;
16965;SDS011;8599;47.852;12.070;2022-08-27T06:33:38;4.03;;;2.80;;
16965;SDS011;8599;47.852;12.070;2022-08-27T06:36:07;5.13;;;3.30;;
16965;SDS011;8599;47.852;12.070;2022-08-27T06:38:37;3.70;;;3.10;;
16965;SDS011;8599;47.852;12.070;2022-08-27T06:41:05;4.65;;;3.17;;
16965;SDS011;8599;47.852;12.070;2022-08-27T06:43:33;7.83;;;3.40;;
16965;SDS011;8599;47.852;12.070;2022-08-27T06:46:03;4.93;;;3.45;;
16965;SDS011;8599;47.852;12.070;2022-08-27T06:48:32;4.30;;;3.42;;
16965;SDS011;8599;47.852;12.070;2022-08-27T06:50:59;6.50;;;3.70;;
16965;SDS011;8599;47.852;12.070;2022-08-27T06:53:31;7.75;;;3.67;;
16965;SDS011;8599;47.852;12.070;2022-08-27T06:55:58;6.50;;;3.47;;
16965;SDS011;8599;47.852;12.070;2022-08-27T06:58:25;3.03;;;2.72;;
16965;SDS011;8599;47.852;12.070;2022-08-27T07:00:52;5.20;;;3.40;;
16965;SDS011;8599;47.852;12.070;2022-08-27T07:03:20;4.18;;;3.00;;
16965;SDS011;8599;47.852;12.070;2022-08-27T07:05:47;4.22;;;3.22;;
16965;SDS011;8599;47.852;12.070;2022-08-27T07:08:14;4.45;;;3.15;;
16965;SDS011;8599;47.852;12.070;2022-08-27T07:10:40;5.40;;;3.38;;
16965;SDS011;8599;47.852;12.070;2022-08-27T07:13:07;3.78;;;3.38;;
16965;SDS011;8599;47.852;12.070;2022-08-27T07:15:37;3.75;;;3.10;;
16965;SDS011;8599;47.852;12.070;2022-08-27T07:18:05;3.22;;;2.75;;
16965;SDS011;8599;47.852;12.070;2022-08-27T07:20:33;4.27;;;3.00;;
16965;SDS011;8599;47.852;12.070;2022-08-27T07:23:00;4.72;;;3.42;;
16965;SDS011;8599;47.852;12.070;2022-08-27T07:25:27;3.72;;;3.25;;
16965;SDS011;8599;47.852;12.070;2022-08-27T07:27:56;5.13;;;4.18;;
16965;SDS011;8599;47.852;12.070;2022-08-27T07:30:23;5.63;;;3.47;;
16965;SDS011;8599;47.852;12.070;2022-08-27T07:32:52;6.63;;;3.78;;
16965;SDS011;8599;47.852;12.070;2022-08-27T07:35:19;6.10;;;3.50;;
16965;SDS011;8599;47.852;12.070;2022-08-27T07:37:47;6.85;;;3.53;;
16965;SDS011;8599;47.852;12.070;2022-08-27T07:40:14;5.70;;;3.38;;
16965;SDS011;8599;47.852;12.070;2022-08-27T07:42:41;12.15;;;8.60;;
16965;SDS011;8599;47.852;12.070;2022-08-27T07:45:26;6.55;;;4.18;;
16965;SDS011;8599;47.852;12.070;2022-08-27T07:47:56;5.68;;;4.20;;
16965;SDS011;8599;47.852;12.070;2022-08-27T07:50:23;5.57;;;3.33;;
16965;SDS011;8599;47.852;12.070;2022-08-27T07:52:51;5.25;;;3.60;;
16965;SDS011;8599;47.852;12.070;2022-08-27T07:55:18;5.55;;;3.40;;
16965;SDS011;8599;47.852;12.070;2022-08-27T07:57:45;3.95;;;3.55;;
16965;SDS011;8599;47.852;12.070;2022-08-27T08:00:13;5.55;;;3.25;;
16965;SDS011;8599;47.852;12.070;2022-08-27T08:02:40;4.95;;;3.90;;
16965;SDS011;8599;47.852;12.070;2022-08-27T08:05:09;6.65;;;3.85;;
16965;SDS011;8599;47.852;12.070;2022-08-27T08:07:38;3.67;;;3.30;;
16965;SDS011;8599;47.852;12.070;2022-08-27T08:10:07;4.30;;;3.38;;
16965;SDS011;8599;47.852;12.070;2022-08-27T08:12:35;7.38;;;3.40;;
16965;SDS011;8599;47.852;12.070;2022-08-27T08:15:03;5.35;;;3.33;;
16965;SDS011;8599;47.852;12.070;2022-08-27T08:17:31;7.63;;;3.65;;
16965;SDS011;8599;47.852;12.070;2022-08-27T08:19:58;3.28;;;2.95;;
16965;SDS011;8599;47.852;12.070;2022-08-27T08:22:25;3.78;;;3.47;;
16965;SDS011;8599;47.852;12.070;2022-08-27T08:24:52;4.07;;;3.20;;
16965;SDS011;8599;47.852;12.070;2022-08-27T08:27:20;4.20;;;3.53;;
16965;SDS011;8599;47.852;12.070;2022-08-27T08:29:47;3.92;;;3.53;;
16965;SDS011;8599;47.852;12.070;2022-08-27T08:32:15;4.13;;;3.10;;
16965;SDS011;8599;47.852;12.070;2022-08-27T08:34:42;6.13;;;3.33;;
16965;SDS011;8599;47.852;12.070;2022-08-27T08:37:09;6.82;;;3.13;;
16965;SDS011;8599;47.852;12.070;2022-08-27T08:39:38;7.85;;;3.90;;
16965;SDS011;8599;47.852;12.070;2022-08-27T08:42:06;4.57;;;3.20;;
16965;SDS011;8599;47.852;12.070;2022-08-27T08:44:47;5.47;;;3.45;;
16965;SDS011;8599;47.852;12.070;2022-08-27T08:47:18;3.03;;;2.78;;
16965;SDS011;8599;47.852;12.070;2022-08-27T08:49:50;4.45;;;3.78;;
16965;SDS011;8599;47.852;12.070;2022-08-27T08:52:25;5.60;;;4.10;;
16965;SDS011;8599;47.852;12.070;2022-08-27T08:55:09;4.35;;;3.75;;
16965;SDS011;8599;47.852;12.070;2022-08-27T08:57:44;7.85;;;4.20;;
16965;SDS011;8599;47.852;12.070;2022-08-27T09:00:16;5.65;;;4.18;;
16965;SDS011;8599;47.852;12.070;2022-08-27T09:02:45;6.60;;;4.25;;
16965;SDS011;8599;47.852;12.070;2022-08-27T09:05:16;5.05;;;4.15;;
16965;SDS011;8599;47.852;12.070;2022-08-27T09:07:44;5.00;;;3.70;;
16965;SDS011;8599;47.852;12.070;2022-08-27T09:10:17;7.93;;;4.00;;
16965;SDS011;8599;47.852;12.070;2022-08-27T09:12:50;4.80;;;4.28;;
16965;SDS011;8599;47.852;12.070;2022-08-27T09:15:22;4.95;;;4.07;;
16965;SDS011;8599;47.852;12.070;2022-08-27T09:18:02;6.13;;;4.43;;
16965;SDS011;8599;47.852;12.070;2022-08-27T09:20:31;6.63;;;4.57;;
16965;SDS011;8599;47.852;12.070;2022-08-27T09:23:00;5.53;;;4.53;;
16965;SDS011;8599;47.852;12.070;2022-08-27T09:25:35;7.43;;;4.50;;
16965;SDS011;8599;47.852;12.070;2022-08-27T09:28:05;7.35;;;4.32;;
16965;SDS011;8599;47.852;12.070;2022-08-27T09:30:58;6.03;;;4.80;;
16965;SDS011;8599;47.852;12.070;2022-08-27T09:33:25;5.30;;;4.38;;
16965;SDS011;8599;47.852;12.070;2022-08-27T09:35:52;7.30;;;4.50;;
16965;SDS011;8599;47.852;12.070;2022-08-27T09:38:22;7.28;;;4.85;;
16965;SDS011;8599;47.852;12.070;2022-08-27T09:40:54;5.93;;;4.45;;
16965;SDS011;8599;47.852;12.070;2022-08-27T09:43:25;7.72;;;4.75;;
16965;SDS011;8599;47.852;12.070;2022-08-27T09:45:54;6.28;;;4.25;;
16965;SDS011;8599;47.852;12.070;2022-08-27T09:48:25;7.07;;;5.53;;
16965;SDS011;8599;47.852;12.070;2022-08-27T09:50:54;11.10;;;7.05;;
16965;SDS011;8599;47.852;12.070;2022-08-27T09:53:24;7.45;;;5.47;;
16965;SDS011;8599;47.852;12.070;2022-08-27T09:55:56;6.03;;;4.97;;
16965;SDS011;8599;47.852;12.070;2022-08-27T09:58:25;9.52;;;4.82;;
16965;SDS011;8599;47.852;12.070;2022-08-27T10:00:59;6.57;;;4.53;;
16965;SDS011;8599;47.852;12.070;2022-08-27T10:03:27;10.18;;;4.80;;
16965;SDS011;8599;47.852;12.070;2022-08-27T10:05:55;7.93;;;5.13;;
16965;SDS011;8599;47.852;12.070;2022-08-27T10:08:24;8.18;;;5.25;;
16965;SDS011;8599;47.852;12.070;2022-08-27T10:10:55;5.47;;;4.85;;
16965;SDS011;8599;47.852;12.070;2022-08-27T10:13:30;7.65;;;5.45;;
16965;SDS011;8599;47.852;12.070;2022-08-27T10:19:10;9.57;;;5.40;;
16965;SDS011;8599;47.852;12.070;2022-08-27T10:21:44;9.52;;;5.25;;
16965;SDS011;8599;47.852;12.070;2022-08-27T10:24:18;7.15;;;5.20;;
16965;SDS011;8599;47.852;12.070;2022-08-27T10:26:56;6.25;;;5.28;;
16965;SDS011;8599;47.852;12.070;2022-08-27T10:29:35;8.18;;;5.20;;
16965;SDS011;8599;47.852;12.070;2022-08-27T10:32:13;7.75;;;5.57;;
16965;SDS011;8599;47.852;12.070;2022-08-27T10:34:50;7.47;;;5.00;;
16965;SDS011;8599;47.852;12.070;2022-08-27T10:37:31;7.30;;;5.32;;
16965;SDS011;8599;47.852;12.070;2022-08-27T10:40:09;7.40;;;4.43;;
16965;SDS011;8599;47.852;12.070;2022-08-27T10:42:44;4.88;;;4.38;;
16965;SDS011;8599;47.852;12.070;2022-08-27T10:45:22;6.25;;;4.45;;
16965;SDS011;8599;47.852;12.070;2022-08-27T10:48:00;8.52;;;5.13;;
16965;SDS011;8599;47.852;12.070;2022-08-27T10:50:37;7.60;;;5.18;;
16965;SDS011;8599;47.852;12.070;2022-08-27T10:53:10;5.22;;;4.72;;
16965;SDS011;8599;47.852;12.070;2022-08-27T10:55:43;7.10;;;4.60;;
16965;SDS011;8599;47.852;12.070;2022-08-27T10:58:25;5.35;;;4.25;;
16965;SDS011;8599;47.852;12.070;2022-08-27T11:01:05;7.90;;;5.88;;
16965;SDS011;8599;47.852;12.070;2022-08-27T11:03:40;7.93;;;3.97;;
16965;SDS011;8599;47.852;12.070;2022-08-27T11:06:14;7.18;;;4.80;;
16965;SDS011;8599;47.852;12.070;2022-08-27T11:08:49;5.38;;;4.68;;
16965;SDS011;8599;47.852;12.070;2022-08-27T11:11:22;5.82;;;4.72;;
16965;SDS011;8599;47.852;12.070;2022-08-27T11:13:53;5.05;;;4.53;;
16965;SDS011;8599;47.852;12.070;2022-08-27T11:16:24;5.50;;;4.00;;
16965;SDS011;8599;47.852;12.070;2022-08-27T11:18:57;5.03;;;4.53;;
16965;SDS011;8599;47.852;12.070;2022-08-27T11:21:29;5.07;;;4.13;;
16965;SDS011;8599;47.852;12.070;2022-08-27T11:24:12;5.47;;;4.50;;
16965;SDS011;8599;47.852;12.070;2022-08-27T11:26:44;5.40;;;4.22;;
16965;SDS011;8599;47.852;12.070;2022-08-27T11:29:17;5.72;;;4.53;;
16965;SDS011;8599;47.852;12.070;2022-08-27T11:31:47;5.13;;;3.92;;
16965;SDS011;8599;47.852;12.070;2022-08-27T11:34:23;5.63;;;3.72;;
16965;SDS011;8599;47.852;12.070;2022-08-27T11:37:03;7.03;;;4.32;;
16965;SDS011;8599;47.852;12.070;2022-08-27T11:40:00;6.00;;;4.53;;
16965;SDS011;8599;47.852;12.070;2022-08-27T11:42:44;8.57;;;6.00;;
16965;SDS011;8599;47.852;12.070;2022-08-27T11:45:16;5.60;;;4.80;;
16965;SDS011;8599;47.852;12.070;2022-08-27T11:47:51;8.32;;;5.20;;
16965;SDS011;8599;47.852;12.070;2022-08-27T11:50:21;5.53;;;5.03;;
16965;SDS011;8599;47.852;12.070;2022-08-27T11:52:53;6.10;;;5.10;;
16965;SDS011;8599;47.852;12.070;2022-08-27T11:55:25;9.48;;;4.80;;
16965;SDS011;8599;47.852;12.070;2022-08-27T11:58:02;7.35;;;5.07;;
16965;SDS011;8599;47.852;12.070;2022-08-27T12:00:35;6.10;;;4.80;;
16965;SDS011;8599;47.852;12.070;2022-08-27T12:03:04;5.68;;;4.93;;
16965;SDS011;8599;47.852;12.070;2022-08-27T12:05:40;7.47;;;4.47;;
16965;SDS011;8599;47.852;12.070;2022-08-27T12:08:16;5.93;;;5.07;;
16965;SDS011;8599;47.852;12.070;2022-08-27T12:13:49;8.90;;;5.38;;
16965;SDS011;8599;47.852;12.070;2022-08-27T12:16:24;8.63;;;5.35;;
16965;SDS011;8599;47.852;12.070;2022-08-27T12:19:05;13.82;;;5.57;;
16965;SDS011;8599;47.852;12.070;2022-08-27T12:21:47;9.32;;;6.50;;
16965;SDS011;8599;47.852;12.070;2022-08-27T12:27:26;11.50;;;6.07;;
16965;SDS011;8599;47.852;12.070;2022-08-27T12:29:58;9.43;;;6.50;;
16965;SDS011;8599;47.852;12.070;2022-08-27T12:32:29;9.38;;;6.07;;
16965;SDS011;8599;47.852;12.070;2022-08-27T12:35:00;8.65;;;5.53;;
16965;SDS011;8599;47.852;12.070;2022-08-27T12:37:36;5.95;;;5.03;;
16965;SDS011;8599;47.852;12.070;2022-08-27T12:40:06;6.45;;;4.95;;
16965;SDS011;8599;47.852;12.070;2022-08-27T12:42:39;7.90;;;5.03;;
16965;SDS011;8599;47.852;12.070;2022-08-27T12:45:07;5.15;;;4.57;;
16965;SDS011;8599;47.852;12.070;2022-08-27T12:47:42;6.22;;;5.07;;
16965;SDS011;8599;47.852;12.070;2022-08-27T12:50:10;5.15;;;4.65;;
16965;SDS011;8599;47.852;12.070;2022-08-27T12:52:45;8.25;;;4.43;;
16965;SDS011;8599;47.852;12.070;2022-08-27T12:55:39;9.25;;;5.70;;
16965;SDS011;8599;47.852;12.070;2022-08-27T12:58:21;8.45;;;5.22;;
16965;SDS011;8599;47.852;12.070;2022-08-27T13:00:58;9.00;;;5.05;;
16965;SDS011;8599;47.852;12.070;2022-08-27T13:03:32;9.70;;;5.65;;
16965;SDS011;8599;47.852;12.070;2022-08-27T13:06:12;8.38;;;4.85;;
16965;SDS011;8599;47.852;12.070;2022-08-27T13:08:42;6.55;;;4.75;;
16965;SDS011;8599;47.852;12.070;2022-08-27T13:11:10;6.22;;;3.78;;
16965;SDS011;8599;47.852;12.070;2022-08-27T13:13:43;4.78;;;3.72;;
16965;SDS011;8599;47.852;12.070;2022-08-27T13:16:11;7.10;;;4.13;;
16965;SDS011;8599;47.852;12.070;2022-08-27T13:18:38;9.05;;;4.88;;
16965;SDS011;8599;47.852;12.070;2022-08-27T13:21:07;5.47;;;4.40;;
16965;SDS011;8599;47.852;12.070;2022-08-27T13:23:43;7.60;;;4.70;;
16965;SDS011;8599;47.852;12.070;2022-08-27T13:26:14;5.75;;;4.10;;
16965;SDS011;8599;47.852;12.070;2022-08-27T13:28:47;10.52;;;4.82;;
16965;SDS011;8599;47.852;12.070;2022-08-27T13:31:14;6.80;;;4.60;;
16965;SDS011;8599;47.852;12.070;2022-08-27T13:33:42;8.00;;;4.40;;
16965;SDS011;8599;47.852;12.070;2022-08-27T13:36:10;7.55;;;3.92;;
16965;SDS011;8599;47.852;12.070;2022-08-27T13:38:37;8.23;;;4.72;;
16965;SDS011;8599;47.852;12.070;2022-08-27T13:41:10;7.07;;;4.55;;
16965;SDS011;8599;47.852;12.070;2022-08-27T13:43:47;9.13;;;4.20;;
16965;SDS011;8599;47.852;12.070;2022-08-27T13:46:15;7.13;;;4.28;;
16965;SDS011;8599;47.852;12.070;2022-08-27T13:48:45;7.00;;;3.95;;
16965;SDS011;8599;47.852;12.070;2022-08-27T13:51:14;5.88;;;3.97;;
16965;SDS011;8599;47.852;12.070;2022-08-27T13:53:48;7.90;;;4.40;;
16965;SDS011;8599;47.852;12.070;2022-08-27T13:56:35;7.95;;;4.28;;
16965;SDS011;8599;47.852;12.070;2022-08-27T13:59:08;8.00;;;4.00;;
16965;SDS011;8599;47.852;12.070;2022-08-27T14:01:37;7.38;;;4.05;;
16965;SDS011;8599;47.852;12.070;2022-08-27T14:04:07;8.05;;;4.18;;
16965;SDS011;8599;47.852;12.070;2022-08-27T14:06:45;6.53;;;4.75;;
16965;SDS011;8599;47.852;12.070;2022-08-27T14:09:17;6.82;;;4.57;;
16965;SDS011;8599;47.852;12.070;2022-08-27T14:11:56;7.68;;;4.00;;
16965;SDS011;8599;47.852;12.070;2022-08-27T14:14:24;7.55;;;4.20;;
16965;SDS011;8599;47.852;12.070;2022-08-27T14:16:55;5.78;;;3.60;;
16965;SDS011;8599;47.852;12.070;2022-08-27T14:19:24;5.90;;;3.60;;
16965;SDS011;8599;47.852;12.070;2022-08-27T14:21:52;5.72;;;4.00;;
16965;SDS011;8599;47.852;12.070;2022-08-27T14:24:19;5.30;;;3.53;;
16965;SDS011;8599;47.852;12.070;2022-08-27T14:26:47;7.95;;;4.15;;
16965;SDS011;8599;47.852;12.070;2022-08-27T14:29:16;8.55;;;3.75;;
16965;SDS011;8599;47.852;12.070;2022-08-27T14:31:43;6.10;;;4.00;;
16965;SDS011;8599;47.852;12.070;2022-08-27T14:34:10;7.72;;;4.28;;
16965;SDS011;8599;47.852;12.070;2022-08-27T14:36:38;7.60;;;3.88;;
16965;SDS011;8599;47.852;12.070;2022-08-27T14:39:07;6.60;;;4.18;;
16965;SDS011;8599;47.852;12.070;2022-08-27T14:41:35;9.55;;;4.05;;
16965;SDS011;8599;47.852;12.070;2022-08-27T14:44:04;6.03;;;3.70;;
16965;SDS011;8599;47.852;12.070;2022-08-27T14:46:32;6.07;;;4.25;;
16965;SDS011;8599;47.852;12.070;2022-08-27T14:49:01;6.30;;;4.93;;
16965;SDS011;8599;47.852;12.070;2022-08-27T14:51:33;7.22;;;4.68;;
16965;SDS011;8599;47.852;12.070;2022-08-27T14:54:02;6.32;;;3.70;;
16965;SDS011;8599;47.852;12.070;2022-08-27T14:56:29;10.73;;;4.50;;
16965;SDS011;8599;47.852;12.070;2022-08-27T14:58:56;11.45;;;4.13;;
16965;SDS011;8599;47.852;12.070;2022-08-27T15:01:24;6.47;;;4.45;;
16965;SDS011;8599;47.852;12.070;2022-08-27T15:03:52;7.72;;;3.95;;
16965;SDS011;8599;47.852;12.070;2022-08-27T15:06:19;9.35;;;3.90;;
16965;SDS011;8599;47.852;12.070;2022-08-27T15:08:47;7.30;;;4.03;;
16965;SDS011;8599;47.852;12.070;2022-08-27T15:11:15;7.40;;;4.50;;
16965;SDS011;8599;47.852;12.070;2022-08-27T15:13:43;9.60;;;3.65;;
16965;SDS011;8599;47.852;12.070;2022-08-27T15:16:26;7.75;;;4.28;;